Time;durP1;ratioP1;P1;durP2;ratioP2;P2;SDS_P1;SDS_P2;PMS_P1;PMS_P2;Temp;Humidity;BMP_temperature;BMP_pressure;BME280_temperature;BME280_humidity;BME280_pressure;Samples;Min_cycle;Max_cycle;Signal;HPM_P1;HPM_P2
2021/03/15 00:00:58;;;;;;;3.70;2.65;;;4.30;99.90;;;;;;5073808;28;20369;-51
2021/03/15 00:03:24;;;;;;;3.85;2.63;;;4.20;99.90;;;;;;5073870;28;20116;-49
2021/03/15 00:05:50;;;;;;;6.07;3.17;;;4.10;99.90;;;;;;5073708;28;20029;-53
2021/03/15 00:08:16;;;;;;;6.63;3.20;;;4.00;99.90;;;;;;5073789;28;20058;-51
2021/03/15 00:10:41;;;;;;;4.65;2.58;;;3.90;99.90;;;;;;5072793;28;20025;-51
2021/03/15 00:13:07;;;;;;;4.45;2.85;;;3.70;99.90;;;;;;5073587;28;20032;-50
2021/03/15 00:15:34;;;;;;;6.57;3.03;;;3.60;99.90;;;;;;5073844;28;20032;-49
2021/03/15 00:18:00;;;;;;;5.07;3.03;;;3.50;99.90;;;;;;5073420;28;20103;-52
2021/03/15 00:20:25;;;;;;;7.03;3.05;;;3.40;99.90;;;;;;5073553;28;20111;-48
2021/03/15 00:22:51;;;;;;;4.68;2.60;;;3.30;99.90;;;;;;5073310;28;20029;-49
2021/03/15 00:25:18;;;;;;;8.00;3.00;;;3.30;99.90;;;;;;5072641;28;20032;-50
2021/03/15 00:27:45;;;;;;;4.53;2.80;;;3.20;99.90;;;;;;5072148;28;20028;-51
2021/03/15 00:30:13;;;;;;;4.45;2.75;;;3.10;99.90;;;;;;5073475;28;20447;-51
2021/03/15 00:32:39;;;;;;;5.45;3.47;;;3.10;99.90;;;;;;5073280;28;20035;-49
2021/03/15 00:35:07;;;;;;;5.70;3.05;;;3.00;99.90;;;;;;5071836;28;20028;-49
2021/03/15 00:37:32;;;;;;;6.75;3.03;;;3.00;99.90;;;;;;5073099;28;20024;-48
2021/03/15 00:39:58;;;;;;;4.18;2.60;;;2.90;99.90;;;;;;5072110;28;20031;-54
2021/03/15 00:42:23;;;;;;;8.60;3.17;;;2.90;99.90;;;;;;5073065;28;20110;-47
2021/03/15 00:44:49;;;;;;;4.72;2.72;;;2.90;99.90;;;;;;5073289;28;20527;-50
2021/03/15 00:47:15;;;;;;;5.38;2.90;;;2.70;99.90;;;;;;5072953;28;20360;-51
2021/03/15 00:49:40;;;;;;;7.03;3.17;;;2.70;99.90;;;;;;5072940;28;20024;-49
2021/03/15 00:52:06;;;;;;;4.55;3.03;;;2.60;99.90;;;;;;5072761;28;20024;-53
2021/03/15 00:54:31;;;;;;;5.78;3.40;;;2.60;99.90;;;;;;5071987;28;20036;-49
2021/03/15 00:56:57;;;;;;;8.88;3.28;;;2.70;99.90;;;;;;5072617;28;20060;-48
2021/03/15 00:59:22;;;;;;;6.15;3.55;;;2.80;99.90;;;;;;5072917;28;20025;-51
2021/03/15 01:01:48;;;;;;;7.45;3.45;;;2.80;99.90;;;;;;5072697;28;20033;-50
2021/03/15 01:04:15;;;;;;;5.15;3.10;;;2.90;99.90;;;;;;5072839;28;20060;-52
2021/03/15 01:06:41;;;;;;;6.00;3.78;;;3.10;99.90;;;;;;5072679;28;20054;-52
2021/03/15 01:09:08;;;;;;;6.05;3.20;;;3.20;99.90;;;;;;5072533;28;20023;-53
2021/03/15 01:11:33;;;;;;;5.35;3.38;;;3.30;99.90;;;;;;5072189;28;20029;-50
2021/03/15 01:13:59;;;;;;;9.90;3.60;;;3.50;99.90;;;;;;5072669;28;20036;-48
2021/03/15 01:16:25;;;;;;;4.70;2.90;;;3.60;99.90;;;;;;5072875;28;20039;-52
2021/03/15 01:18:50;;;;;;;6.25;3.05;;;3.70;99.90;;;;;;5072659;28;20071;-48
2021/03/15 01:21:16;;;;;;;6.88;3.47;;;3.80;99.90;;;;;;5072460;28;20032;-52
2021/03/15 01:23:42;;;;;;;5.15;3.22;;;3.80;99.90;;;;;;5072490;28;20028;-51
2021/03/15 01:26:07;;;;;;;7.38;3.50;;;3.90;99.90;;;;;;5071701;28;20129;-50
2021/03/15 01:28:33;;;;;;;7.65;3.20;;;4.00;99.90;;;;;;5072598;28;20063;-52
2021/03/15 01:31:00;;;;;;;7.80;3.50;;;4.00;99.90;;;;;;5072610;28;20482;-48
2021/03/15 01:33:26;;;;;;;7.43;3.97;;;4.10;99.90;;;;;;5072509;28;20468;-48
2021/03/15 01:35:52;;;;;;;9.05;3.67;;;4.20;99.90;;;;;;5072434;28;20521;-50
2021/03/15 01:38:17;;;;;;;6.85;3.90;;;4.20;99.90;;;;;;5072351;28;20029;-50
2021/03/15 01:40:43;;;;;;;8.70;3.75;;;4.20;99.90;;;;;;5071591;28;20052;-51
2021/03/15 01:43:09;;;;;;;4.88;3.35;;;4.30;99.90;;;;;;5072177;28;20058;-51
2021/03/15 01:45:35;;;;;;;5.38;3.35;;;4.30;99.90;;;;;;5072541;28;20042;-52
2021/03/15 01:48:03;;;;;;;6.80;3.60;;;4.30;99.90;;;;;;5072313;28;20415;-49
2021/03/15 01:50:28;;;;;;;6.57;4.43;;;4.30;99.90;;;;;;5076320;28;20020;-52
2021/03/15 01:52:55;;;;;;;11.75;4.20;;;4.30;99.90;;;;;;5076185;28;20040;-51
2021/03/15 01:55:22;;;;;;;7.57;4.45;;;4.40;99.90;;;;;;5075331;28;20546;-51
2021/03/15 01:57:49;;;;;;;9.68;4.75;;;4.40;99.90;;;;;;5076318;28;20070;-53
2021/03/15 02:00:16;;;;;;;8.18;3.55;;;4.40;99.90;;;;;;5076157;28;20029;-54
2021/03/15 02:02:46;;;;;;;6.15;4.30;;;4.40;99.90;;;;;;5076014;28;20062;-49
2021/03/15 02:05:12;;;;;;;9.15;4.28;;;4.40;99.90;;;;;;5076084;28;20464;-49
2021/03/15 02:07:37;;;;;;;6.15;4.03;;;4.50;99.90;;;;;;5075918;28;20096;-52
2021/03/15 02:10:04;;;;;;;8.07;3.92;;;4.50;99.90;;;;;;5075081;28;20059;-49
2021/03/15 02:13:07;;;;;;;6.85;4.18;;;4.50;99.90;;;;;;5075941;28;20035;-48
2021/03/15 02:15:41;;;;;;;5.97;3.95;;;4.50;99.90;;;;;;5076050;28;20464;-48
2021/03/15 02:18:20;;;;;;;7.05;4.20;;;4.50;99.90;;;;;;5075715;28;20037;-49
2021/03/15 02:21:23;;;;;;;7.38;4.20;;;4.40;99.90;;;;;;5075948;28;20044;-51
2021/03/15 02:23:57;;;;;;;6.75;3.95;;;4.50;99.90;;;;;;5075559;28;20028;-48
2021/03/15 02:27:00;;;;;;;6.88;4.03;;;4.50;99.90;;;;;;5074876;28;20029;-49
2021/03/15 02:29:50;;;;;;;5.97;3.03;;;4.50;99.90;;;;;;5075663;28;20025;-53
2021/03/15 02:32:53;;;;;;;9.40;3.50;;;4.50;99.90;;;;;;5075685;28;20024;-55
2021/03/15 02:35:25;;;;;;;5.07;2.97;;;4.50;99.90;;;;;;5075680;28;20029;-48
2021/03/15 02:38:06;;;;;;;9.80;4.30;;;4.60;99.90;;;;;;5075340;28;20020;-54
2021/03/15 02:40:40;;;;;;;5.47;3.40;;;4.60;99.90;;;;;;5074777;28;20028;-51
2021/03/15 02:43:09;;;;;;;7.50;3.25;;;4.60;99.90;;;;;;5075146;28;20071;-51
2021/03/15 02:45:37;;;;;;;6.10;3.60;;;4.60;99.90;;;;;;5075590;28;20367;-51
2021/03/15 02:48:04;;;;;;;7.60;4.07;;;4.60;99.90;;;;;;5074012;28;20025;-52
2021/03/15 02:50:31;;;;;;;6.82;3.17;;;4.60;99.90;;;;;;5075296;28;20341;-51
2021/03/15 02:52:57;;;;;;;5.78;3.92;;;4.60;99.90;;;;;;5075157;28;20422;-54
2021/03/15 02:55:27;;;;;;;6.20;3.25;;;4.50;99.90;;;;;;5074232;28;20101;-52
2021/03/15 02:57:53;;;;;;;8.30;3.50;;;4.50;99.90;;;;;;5075228;28;20029;-48
2021/03/15 03:00:20;;;;;;;6.32;2.97;;;4.50;99.90;;;;;;5074861;28;20035;-51
2021/03/15 03:02:48;;;;;;;7.10;3.42;;;4.50;99.90;;;;;;5075085;28;20020;-49
2021/03/15 03:05:16;;;;;;;8.57;4.05;;;4.50;99.90;;;;;;5075000;28;20051;-53
2021/03/15 03:07:46;;;;;;;6.80;4.07;;;4.50;99.90;;;;;;5073741;28;20510;-49
2021/03/15 03:10:13;;;;;;;8.02;3.38;;;4.40;99.90;;;;;;5073895;28;20391;-54
2021/03/15 03:12:40;;;;;;;5.28;3.53;;;4.40;99.90;;;;;;5075003;28;20503;-53
2021/03/15 03:15:08;;;;;;;6.22;3.35;;;4.40;99.90;;;;;;5074932;28;20074;-49
2021/03/15 03:17:39;;;;;;;4.38;3.17;;;4.30;99.90;;;;;;5074993;28;20510;-50
2021/03/15 03:20:17;;;;;;;4.78;3.00;;;4.30;99.90;;;;;;5074745;28;20032;-49
2021/03/15 03:22:45;;;;;;;11.68;4.50;;;4.30;99.90;;;;;;5074647;28;20104;-51
2021/03/15 03:25:16;;;;;;;5.45;3.55;;;4.20;99.90;;;;;;5073561;28;20487;-49
2021/03/15 03:27:54;;;;;;;9.38;4.93;;;4.20;99.90;;;;;;5074825;28;20032;-48
2021/03/15 03:30:26;;;;;;;6.88;4.25;;;4.20;99.90;;;;;;5074489;28;20036;-50
2021/03/15 03:32:53;;;;;;;5.82;3.03;;;4.20;99.90;;;;;;5074647;28;20047;-49
2021/03/15 03:35:18;;;;;;;5.97;3.30;;;4.20;99.90;;;;;;5074283;28;20031;-51
2021/03/15 03:37:45;;;;;;;7.35;3.95;;;4.20;99.90;;;;;;5074560;28;20024;-48
2021/03/15 03:40:12;;;;;;;8.80;4.20;;;4.20;99.90;;;;;;5073396;28;20442;-50
2021/03/15 03:42:38;;;;;;;8.60;4.90;;;4.20;99.90;;;;;;5074207;28;20035;-48
2021/03/15 03:45:05;;;;;;;7.38;4.40;;;4.20;99.90;;;;;;5074332;28;20025;-48
2021/03/15 03:47:31;;;;;;;6.55;3.80;;;4.20;99.90;;;;;;5073183;28;20597;-48
2021/03/15 03:49:58;;;;;;;5.28;3.45;;;4.30;99.90;;;;;;5074033;28;20028;-47
2021/03/15 03:52:27;;;;;;;5.00;3.28;;;4.30;99.90;;;;;;5074126;28;20494;-48
2021/03/15 03:54:59;;;;;;;7.53;3.95;;;4.30;99.90;;;;;;5073114;28;20028;-50
2021/03/15 03:57:31;;;;;;;9.57;4.38;;;4.30;99.90;;;;;;5074084;28;20138;-51
2021/03/15 04:00:02;;;;;;;8.60;4.05;;;4.30;99.90;;;;;;5073962;28;20033;-53
2021/03/15 04:02:28;;;;;;;9.43;4.95;;;4.30;99.90;;;;;;5073770;28;20054;-49
2021/03/15 04:05:02;;;;;;;7.85;3.38;;;4.30;99.90;;;;;;5073966;28;20047;-49
2021/03/15 04:07:29;;;;;;;6.25;3.95;;;4.30;99.90;;;;;;5073923;28;20086;-52
2021/03/15 04:10:04;;;;;;;6.35;3.97;;;4.40;99.90;;;;;;5072849;28;20047;-49
2021/03/15 04:12:32;;;;;;;11.15;4.25;;;4.40;99.90;;;;;;5073253;28;20024;-49
2021/03/15 04:15:00;;;;;;;8.48;4.65;;;4.40;99.90;;;;;;5072352;28;20028;-51
2021/03/15 04:17:33;;;;;;;9.88;5.03;;;4.40;99.90;;;;;;5073739;28;20020;-50
2021/03/15 04:20:03;;;;;;;8.88;4.70;;;4.40;99.90;;;;;;5073608;28;20029;-49
2021/03/15 04:22:31;;;;;;;7.72;5.10;;;4.40;99.90;;;;;;5073521;28;20020;-52
2021/03/15 04:25:00;;;;;;;9.45;4.57;;;4.40;99.90;;;;;;5072510;28;20032;-53
2021/03/15 04:27:28;;;;;;;8.80;4.85;;;4.40;99.90;;;;;;5072153;28;20029;-49
2021/03/15 04:29:54;;;;;;;9.35;4.30;;;4.30;99.90;;;;;;5073391;28;20407;-49
2021/03/15 04:32:24;;;;;;;11.48;6.65;;;4.30;99.90;;;;;;5073404;28;20028;-49
2021/03/15 04:34:51;;;;;;;12.10;5.18;;;4.10;99.90;;;;;;5073354;28;20066;-49
2021/03/15 04:37:18;;;;;;;10.95;4.45;;;4.10;99.90;;;;;;5073393;28;20032;-52
2021/03/15 04:39:46;;;;;;;9.90;4.60;;;4.00;99.90;;;;;;5072164;28;20032;-48
2021/03/15 04:42:12;;;;;;;7.03;4.00;;;3.90;99.90;;;;;;5073039;28;20020;-51
2021/03/15 04:44:38;;;;;;;7.60;4.20;;;3.90;99.90;;;;;;5073136;28;20029;-52
2021/03/15 04:47:05;;;;;;;13.38;4.90;;;3.90;99.90;;;;;;5073308;28;20048;-51
2021/03/15 04:49:32;;;;;;;8.48;5.05;;;3.90;99.90;;;;;;5072904;28;20045;-49
2021/03/15 04:52:00;;;;;;;11.40;4.35;;;3.90;99.90;;;;;;5073016;28;20024;-52
2021/03/15 04:54:26;;;;;;;9.32;4.60;;;3.90;99.90;;;;;;5071968;28;20028;-52
2021/03/15 04:56:53;;;;;;;7.65;4.80;;;3.90;99.90;;;;;;5072822;28;20078;-52
2021/03/15 04:59:20;;;;;;;8.75;4.57;;;4.00;99.90;;;;;;5072806;28;20027;-47
2021/03/15 05:01:47;;;;;;;11.18;4.47;;;4.00;99.90;;;;;;5072919;28;20020;-50
2021/03/15 05:04:14;;;;;;;8.98;4.35;;;4.00;99.90;;;;;;5072882;28;20120;-51
2021/03/15 05:06:42;;;;;;;8.60;4.00;;;4.00;99.90;;;;;;5071499;28;20217;-48
2021/03/15 05:09:10;;;;;;;9.05;4.15;;;4.10;99.90;;;;;;5071924;28;20058;-50
2021/03/15 05:11:38;;;;;;;11.73;4.57;;;4.10;99.90;;;;;;5072511;28;20021;-51
2021/03/15 05:14:05;;;;;;;8.70;4.18;;;4.20;99.90;;;;;;5072808;28;20031;-47
2021/03/15 05:16:35;;;;;;;8.23;4.05;;;4.20;99.90;;;;;;5072713;28;20099;-50
2021/03/15 05:19:02;;;;;;;10.95;4.22;;;4.20;99.90;;;;;;5072829;28;20417;-47
2021/03/15 05:21:28;;;;;;;8.30;4.75;;;4.20;99.90;;;;;;5072806;28;20450;-49
2021/03/15 05:23:55;;;;;;;9.23;4.75;;;4.20;99.90;;;;;;5071844;28;20326;-48
2021/03/15 05:26:22;;;;;;;8.32;4.65;;;4.20;99.90;;;;;;5071493;28;20115;-52
2021/03/15 05:28:48;;;;;;;11.15;4.75;;;4.10;99.90;;;;;;5072758;28;20100;-50
2021/03/15 05:31:16;;;;;;;10.52;4.65;;;4.10;99.90;;;;;;5072581;28;20432;-49
2021/03/15 05:33:44;;;;;;;8.55;4.07;;;4.00;99.90;;;;;;5072668;28;20379;-49
2021/03/15 05:36:13;;;;;;;8.68;3.33;;;4.00;99.90;;;;;;5072461;28;20042;-48
2021/03/15 05:38:38;;;;;;;8.48;3.83;;;3.90;99.90;;;;;;5072499;28;20116;-52
2021/03/15 05:41:08;;;;;;;9.07;3.95;;;3.90;99.90;;;;;;5071383;28;20044;-48
2021/03/15 05:44:12;;;;;;;11.02;4.28;;;3.80;99.90;;;;;;5071093;28;20108;-51
2021/03/15 05:47:14;;;;;;;10.38;4.85;;;3.70;99.90;;;;;;5068086;28;20495;-51
2021/03/15 05:50:23;;;;;;;8.20;3.50;;;3.70;99.90;;;;;;5070755;28;20059;-49
2021/03/15 05:53:13;;;;;;;9.70;4.28;;;3.80;99.90;;;;;;5051890;28;20025;-50
2021/03/15 05:55:44;;;;;;;9.68;4.15;;;4.00;99.90;;;;;;5050864;28;20457;-48
2021/03/15 05:58:44;;;;;;;10.25;4.20;;;4.10;99.90;;;;;;5050977;28;20021;-54
2021/03/15 06:01:28;;;;;;;9.75;5.00;;;4.20;99.90;;;;;;5052130;28;20021;-50
2021/03/15 06:04:38;;;;;;;10.40;4.57;;;4.20;99.90;;;;;;5050966;28;20523;-48
2021/03/15 06:07:07;;;;;;;9.45;4.30;;;4.20;99.90;;;;;;5052310;28;20025;-52
2021/03/15 06:09:40;;;;;;;9.88;4.13;;;4.20;99.90;;;;;;5051278;28;20025;-47
2021/03/15 06:12:15;;;;;;;11.20;4.18;;;4.10;99.90;;;;;;5052027;28;20426;-49
2021/03/15 06:14:43;;;;;;;11.10;4.03;;;4.10;99.90;;;;;;5051960;28;20095;-51
2021/03/15 06:17:09;;;;;;;8.35;3.78;;;4.10;99.90;;;;;;5052041;28;20380;-52
2021/03/15 06:19:36;;;;;;;7.20;4.55;;;4.10;99.90;;;;;;5052091;28;20070;-48
2021/03/15 06:22:01;;;;;;;8.35;3.50;;;4.30;99.90;;;;;;5051738;28;20059;-50
2021/03/15 06:24:27;;;;;;;8.45;4.55;;;4.30;99.90;;;;;;5050826;28;20025;-48
2021/03/15 06:26:55;;;;;;;9.98;4.07;;;4.40;99.90;;;;;;5051766;28;20086;-53
2021/03/15 06:29:20;;;;;;;9.15;4.53;;;4.50;99.90;;;;;;5052100;28;20025;-52
2021/03/15 06:31:49;;;;;;;8.75;4.22;;;4.60;99.90;;;;;;5052116;28;20103;-50
2021/03/15 06:34:15;;;;;;;7.10;4.22;;;4.60;99.90;;;;;;5052453;28;20040;-53
2021/03/15 06:36:42;;;;;;;10.80;4.32;;;4.70;99.90;;;;;;5055424;28;20025;-50
2021/03/15 06:39:11;;;;;;;10.98;4.40;;;4.80;99.90;;;;;;5054450;28;20480;-52
2021/03/15 06:41:40;;;;;;;11.65;4.40;;;4.80;99.90;;;;;;5056687;28;20104;-48
2021/03/15 06:44:07;;;;;;;9.23;4.43;;;4.80;99.90;;;;;;5095597;28;20035;-53
2021/03/15 06:46:32;;;;;;;6.75;3.90;;;4.90;99.90;;;;;;5095676;28;20020;-52
2021/03/15 06:48:58;;;;;;;9.85;5.05;;;5.10;99.90;;;;;;5095787;28;20019;-50
2021/03/15 06:51:24;;;;;;;8.77;4.20;;;5.30;99.90;;;;;;5084483;28;20099;-51
2021/03/15 06:53:49;;;;;;;9.00;3.75;;;5.30;99.90;;;;;;5075420;28;20025;-51
2021/03/15 06:56:17;;;;;;;6.93;4.05;;;5.40;99.90;;;;;;5073856;28;20098;-52
2021/03/15 06:58:58;;;;;;;5.35;3.60;;;5.50;99.90;;;;;;5075195;28;20438;-50
2021/03/15 07:01:25;;;;;;;9.07;4.07;;;5.50;99.90;;;;;;5075085;28;20032;-50
2021/03/15 07:04:13;;;;;;;7.53;4.30;;;5.50;99.90;;;;;;5074999;28;20052;-50
2021/03/15 07:06:43;;;;;;;7.55;3.92;;;5.50;99.90;;;;;;5075073;28;20468;-51
2021/03/15 07:09:14;;;;;;;7.22;3.50;;;5.50;99.90;;;;;;5073809;28;20024;-48
2021/03/15 07:11:40;;;;;;;7.82;4.13;;;5.50;99.90;;;;;;5074826;28;20027;-49
2021/03/15 07:14:06;;;;;;;7.57;3.42;;;5.40;99.90;;;;;;5074911;28;20028;-50
2021/03/15 07:16:33;;;;;;;10.63;4.03;;;5.40;99.90;;;;;;5074805;28;20016;-51
2021/03/15 07:19:02;;;;;;;10.75;4.43;;;5.40;99.90;;;;;;5074948;28;20028;-51
2021/03/15 07:21:33;;;;;;;8.95;3.80;;;5.50;99.90;;;;;;5074610;28;20082;-51
2021/03/15 07:23:59;;;;;;;8.68;3.60;;;5.60;99.90;;;;;;5073702;28;20020;-49
2021/03/15 07:26:31;;;;;;;8.40;3.67;;;5.60;99.90;;;;;;5074752;28;20376;-47
2021/03/15 07:28:58;;;;;;;8.65;3.60;;;5.70;99.90;;;;;;5074788;28;20027;-52
2021/03/15 07:31:28;;;;;;;5.25;3.03;;;5.70;99.90;;;;;;5074580;28;20016;-51
2021/03/15 07:33:56;;;;;;;6.78;3.40;;;5.60;99.90;;;;;;5074656;28;20025;-49
2021/03/15 07:36:30;;;;;;;10.50;3.63;;;5.60;99.90;;;;;;5074799;28;20313;-54
2021/03/15 07:38:57;;;;;;;8.02;3.80;;;5.70;99.90;;;;;;5073985;28;20032;-49
2021/03/15 07:41:23;;;;;;;8.45;4.47;;;5.70;99.90;;;;;;5073866;28;20070;-52
2021/03/15 07:43:50;;;;;;;10.20;3.50;;;5.70;99.90;;;;;;5093396;28;20058;-49
2021/03/15 07:46:22;;;;;;;6.43;3.30;;;5.70;99.90;;;;;;5093791;28;20024;-48
2021/03/15 07:48:48;;;;;;;8.75;3.67;;;5.80;99.90;;;;;;5094567;28;20050;-49
2021/03/15 07:51:13;;;;;;;7.53;4.30;;;5.80;99.90;;;;;;5085025;28;20060;-52
2021/03/15 07:53:49;;;;;;;6.60;3.17;;;5.80;99.90;;;;;;5074184;28;20079;-51
2021/03/15 07:56:20;;;;;;;9.23;3.90;;;5.90;99.90;;;;;;5072848;28;20327;-48
2021/03/15 07:58:47;;;;;;;18.77;4.53;;;5.90;99.90;;;;;;5072602;28;20182;-49
2021/03/15 08:01:12;;;;;;;6.65;3.50;;;5.90;99.90;;;;;;5074169;28;20423;-52
2021/03/15 08:03:40;;;;;;;7.55;3.60;;;5.90;99.90;;;;;;5073887;28;20032;-49
2021/03/15 08:06:07;;;;;;;6.30;3.38;;;5.90;99.90;;;;;;5074081;28;20043;-47
2021/03/15 08:08:33;;;;;;;8.25;4.15;;;6.00;99.90;;;;;;5073766;28;20016;-52
2021/03/15 08:10:59;;;;;;;4.78;3.22;;;6.10;99.90;;;;;;5072572;28;20035;-53
2021/03/15 08:13:27;;;;;;;7.05;3.65;;;6.00;99.90;;;;;;5073767;28;20021;-53
2021/03/15 08:15:57;;;;;;;9.57;3.47;;;6.10;99.90;;;;;;5073679;28;20039;-50
2021/03/15 08:18:24;;;;;;;4.78;2.75;;;6.20;99.90;;;;;;5073594;28;20048;-49
2021/03/15 08:20:53;;;;;;;5.88;3.10;;;6.20;99.90;;;;;;5073653;28;20029;-52
2021/03/15 08:23:20;;;;;;;8.00;3.65;;;6.30;99.90;;;;;;5073502;28;20391;-53
2021/03/15 08:25:47;;;;;;;9.15;3.50;;;6.30;99.90;;;;;;5072317;28;20021;-52
2021/03/15 08:28:14;;;;;;;6.68;3.88;;;6.30;99.90;;;;;;5072242;28;20032;-50
2021/03/15 08:30:49;;;;;;;6.30;3.45;;;6.30;99.90;;;;;;5073349;28;20024;-54
2021/03/15 08:33:15;;;;;;;7.17;3.33;;;6.30;99.90;;;;;;5073320;28;20052;-51
2021/03/15 08:35:42;;;;;;;6.53;3.33;;;6.30;99.90;;;;;;5073327;28;20077;-52
2021/03/15 08:38:08;;;;;;;9.25;3.60;;;6.40;99.90;;;;;;5073316;28;20100;-48
2021/03/15 08:40:40;;;;;;;7.05;3.90;;;6.40;99.90;;;;;;5072293;28;20520;-52
2021/03/15 08:43:18;;;;;;;8.38;4.00;;;6.50;99.90;;;;;;5086295;28;20066;-54
2021/03/15 08:45:46;;;;;;;5.63;3.60;;;6.50;99.90;;;;;;5093428;28;20387;-52
2021/03/15 08:48:12;;;;;;;6.97;3.53;;;6.60;99.90;;;;;;5093224;28;20059;-52
2021/03/15 08:50:37;;;;;;;5.97;3.58;;;6.80;99.90;;;;;;5088993;28;20044;-52
2021/03/15 08:53:03;;;;;;;6.03;3.63;;;7.00;99.90;;;;;;5071740;28;20044;-53
2021/03/15 08:55:48;;;;;;;6.88;3.50;;;7.30;99.90;;;;;;5071775;28;20044;-50
2021/03/15 08:58:36;;;;;;;5.00;3.35;;;8.40;99.90;;;;;;5073147;28;20024;-53
2021/03/15 09:01:03;;;;;;;6.85;3.13;;;9.60;98.80;;;;;;5072862;28;20031;-50
2021/03/15 09:03:52;;;;;;;6.63;2.67;;;10.70;96.20;;;;;;5072842;28;20067;-51
2021/03/15 09:06:39;;;;;;;4.95;2.60;;;11.90;91.80;;;;;;5073000;28;20020;-53
2021/03/15 09:09:26;;;;;;;4.55;3.13;;;12.90;90.30;;;;;;5071440;28;20479;-50
2021/03/15 09:11:55;;;;;;;5.00;2.45;;;13.80;86.20;;;;;;5072976;28;20456;-50
2021/03/15 09:14:22;;;;;;;4.85;3.03;;;13.90;85.90;;;;;;5072755;28;20024;-52
2021/03/15 09:16:53;;;;;;;5.28;2.28;;;13.80;87.40;;;;;;5072729;28;20039;-49
2021/03/15 09:19:23;;;;;;;5.28;2.90;;;13.30;88.70;;;;;;5072717;28;20028;-51
2021/03/15 09:22:18;;;;;;;6.55;3.65;;;12.90;85.30;;;;;;5072647;28;20063;-52
2021/03/15 09:25:01;;;;;;;5.43;3.10;;;12.60;79.70;;;;;;5070178;28;20043;-52
2021/03/15 09:27:30;;;;;;;4.50;2.60;;;12.20;83.10;;;;;;5072636;28;20017;-50
2021/03/15 09:30:20;;;;;;;8.88;3.83;;;11.80;87.00;;;;;;5072515;28;20025;-50
2021/03/15 09:32:48;;;;;;;5.55;3.17;;;11.50;80.50;;;;;;5072369;28;20029;-54
2021/03/15 09:35:15;;;;;;;6.78;3.22;;;11.40;85.40;;;;;;5072667;28;20025;-50
2021/03/15 09:37:45;;;;;;;7.05;4.10;;;11.50;84.70;;;;;;5072466;28;20181;-51
2021/03/15 09:40:12;;;;;;;4.43;3.28;;;12.20;83.90;;;;;;5071267;28;20078;-51
2021/03/15 09:42:40;;;;;;;8.75;4.65;;;12.20;80.80;;;;;;5081502;28;20038;-50
2021/03/15 09:45:06;;;;;;;7.43;3.97;;;12.00;81.30;;;;;;5092771;28;20486;-52
2021/03/15 09:47:32;;;;;;;4.50;3.03;;;11.80;82.30;;;;;;5092753;28;20067;-50
2021/03/15 09:49:57;;;;;;;5.18;2.75;;;11.70;83.20;;;;;;5092569;28;20117;-51
2021/03/15 09:52:24;;;;;;;3.60;2.67;;;11.50;82.70;;;;;;5073602;28;20361;-53
2021/03/15 09:54:54;;;;;;;4.00;2.28;;;11.40;83.70;;;;;;5071066;28;20024;-52
2021/03/15 09:57:21;;;;;;;3.72;2.55;;;11.20;83.00;;;;;;5072445;28;20040;-51
2021/03/15 09:59:47;;;;;;;5.13;2.50;;;11.30;83.70;;;;;;5072324;28;20094;-53
2021/03/15 10:02:14;;;;;;;11.35;3.83;;;11.30;83.40;;;;;;5072177;28;20027;-50
2021/03/15 10:04:41;;;;;;;4.88;2.75;;;11.10;81.80;;;;;;5072546;28;20025;-50
2021/03/15 10:07:09;;;;;;;4.97;2.80;;;10.90;83.10;;;;;;5072322;28;20070;-53
2021/03/15 10:09:40;;;;;;;4.15;2.45;;;10.70;82.80;;;;;;5071737;28;20082;-53
2021/03/15 10:12:18;;;;;;;4.47;2.25;;;10.70;83.30;;;;;;5076180;28;20045;-50
2021/03/15 10:14:43;;;;;;;3.78;2.22;;;10.70;83.60;;;;;;5075725;28;20092;-53
2021/03/15 10:17:09;;;;;;;2.35;2.05;;;11.20;82.70;;;;;;5075978;28;20029;-53
2021/03/15 10:19:34;;;;;;;3.10;2.60;;;11.40;81.00;;;;;;5074875;28;20024;-49
2021/03/15 10:22:15;;;;;;;3.10;2.28;;;12.00;79.80;;;;;;5075782;28;20426;-51
2021/03/15 10:24:42;;;;;;;7.90;2.72;;;12.30;76.60;;;;;;5074598;28;20021;-52
2021/03/15 10:27:14;;;;;;;2.42;1.90;;;12.20;79.00;;;;;;5074762;28;20104;-49
2021/03/15 10:29:40;;;;;;;3.35;1.65;;;12.10;78.70;;;;;;5075797;28;20020;-49
2021/03/15 10:32:06;;;;;;;3.78;2.03;;;12.00;78.50;;;;;;5076026;28;20032;-50
2021/03/15 10:34:32;;;;;;;2.92;2.20;;;11.90;78.40;;;;;;5075523;28;20434;-52
2021/03/15 10:36:59;;;;;;;2.17;1.50;;;11.80;77.50;;;;;;5075750;28;20104;-50
2021/03/15 10:39:26;;;;;;;4.05;2.17;;;11.70;78.40;;;;;;5074476;28;20085;-50
2021/03/15 10:41:53;;;;;;;3.05;1.98;;;11.40;78.80;;;;;;5078350;28;21368;-48
2021/03/15 10:44:24;;;;;;;2.28;1.98;;;11.40;79.50;;;;;;5095676;28;20082;-50
2021/03/15 10:46:53;;;;;;;3.75;2.10;;;11.40;79.00;;;;;;5095886;28;20024;-50
2021/03/15 10:49:26;;;;;;;1.52;1.38;;;11.30;79.10;;;;;;5095428;28;20024;-51
2021/03/15 10:51:53;;;;;;;4.30;1.90;;;11.20;79.50;;;;;;5080736;28;20021;-53
2021/03/15 10:54:45;;;;;;;3.03;1.67;;;11.10;79.30;;;;;;5074080;28;20028;-52
2021/03/15 10:57:18;;;;;;;3.00;1.73;;;11.10;77.00;;;;;;5072279;28;20412;-51
2021/03/15 10:59:46;;;;;;;3.10;1.85;;;11.20;78.90;;;;;;5075172;28;20025;-54
2021/03/15 11:02:20;;;;;;;2.80;1.20;;;11.40;79.30;;;;;;5074994;28;20027;-52
2021/03/15 11:04:55;;;;;;;4.10;1.73;;;11.30;76.90;;;;;;5075062;28;20017;-52
2021/03/15 11:07:27;;;;;;;1.30;1.15;;;11.10;77.90;;;;;;5075266;28;20020;-52
2021/03/15 11:09:54;;;;;;;4.30;1.40;;;10.90;78.70;;;;;;5073779;28;20024;-50
2021/03/15 11:12:34;;;;;;;2.17;1.10;;;10.80;79.50;;;;;;5075008;28;20480;-55
2021/03/15 11:15:07;;;;;;;2.28;1.20;;;10.80;79.10;;;;;;5074967;28;20023;-48
2021/03/15 11:17:32;;;;;;;2.42;1.52;;;11.00;79.50;;;;;;5075111;28;20028;-48
2021/03/15 11:19:58;;;;;;;3.22;1.38;;;11.10;78.80;;;;;;5074742;28;20074;-49
2021/03/15 11:22:23;;;;;;;2.13;1.40;;;11.10;78.90;;;;;;5073184;28;20025;-48
2021/03/15 11:25:12;;;;;;;5.10;1.42;;;11.00;79.00;;;;;;5073476;28;20059;-53
2021/03/15 11:27:37;;;;;;;2.42;1.10;;;11.10;78.20;;;;;;5074883;28;20028;-53
2021/03/15 11:30:05;;;;;;;1.70;1.00;;;11.20;78.80;;;;;;5074608;28;20058;-51
2021/03/15 11:32:30;;;;;;;2.65;1.25;;;11.20;78.00;;;;;;5074780;28;20417;-48
2021/03/15 11:34:56;;;;;;;2.58;1.10;;;11.10;78.10;;;;;;5074360;28;20050;-51
2021/03/15 11:37:29;;;;;;;1.02;0.93;;;11.00;78.50;;;;;;5074629;28;20025;-52
2021/03/15 11:39:55;;;;;;;1.52;0.82;;;10.90;78.70;;;;;;5073311;28;20049;-49
2021/03/15 11:42:31;;;;;;;1.63;1.20;;;10.80;78.60;;;;;;5081334;28;20031;-53
2021/03/15 11:44:58;;;;;;;4.63;1.20;;;10.70;78.50;;;;;;5094959;28;20078;-53
2021/03/15 11:47:23;;;;;;;2.78;1.60;;;10.80;78.20;;;;;;5094742;28;20058;-50
2021/03/15 11:49:49;;;;;;;2.60;1.55;;;10.80;78.20;;;;;;5093001;28;20020;-51
2021/03/15 11:52:27;;;;;;;1.58;1.02;;;10.70;78.10;;;;;;5076445;28;20024;-47
2021/03/15 11:54:53;;;;;;;2.40;1.00;;;10.60;78.10;;;;;;5072710;28;20055;-47
2021/03/15 11:57:20;;;;;;;1.70;1.08;;;10.50;78.40;;;;;;5074257;28;20024;-52
2021/03/15 11:59:45;;;;;;;1.90;1.30;;;10.50;77.80;;;;;;5074046;28;20024;-55
2021/03/15 12:02:11;;;;;;;1.05;0.88;;;10.50;78.10;;;;;;5073741;28;20138;-50
2021/03/15 12:04:36;;;;;;;1.65;0.77;;;10.60;77.30;;;;;;5073913;28;20051;-50
2021/03/15 12:07:03;;;;;;;2.10;1.10;;;10.70;77.10;;;;;;5074016;28;20031;-46
2021/03/15 12:09:29;;;;;;;1.50;0.85;;;10.90;76.90;;;;;;5072579;28;20456;-51
2021/03/15 12:11:55;;;;;;;4.32;1.63;;;11.20;76.80;;;;;;5073921;28;20357;-53
2021/03/15 12:14:21;;;;;;;1.35;0.90;;;11.40;75.70;;;;;;5073724;28;20028;-50
2021/03/15 12:16:46;;;;;;;0.98;0.88;;;11.50;75.10;;;;;;5073754;28;20035;-50
2021/03/15 12:19:13;;;;;;;1.15;0.65;;;11.60;75.40;;;;;;5073778;28;20028;-50
2021/03/15 12:21:39;;;;;;;1.92;0.80;;;11.60;75.00;;;;;;5073467;28;20027;-48
2021/03/15 12:24:05;;;;;;;2.78;0.80;;;11.60;74.50;;;;;;5072377;28;20743;-51
2021/03/15 12:26:31;;;;;;;0.90;0.80;;;11.70;74.30;;;;;;5073494;28;20059;-51
2021/03/15 12:28:56;;;;;;;1.70;1.40;;;11.80;74.90;;;;;;5073643;28;20052;-48
2021/03/15 12:31:22;;;;;;;1.48;1.25;;;11.70;74.30;;;;;;5073174;28;20446;-51
2021/03/15 12:33:48;;;;;;;1.25;0.98;;;11.60;74.30;;;;;;5073153;28;20090;-49
2021/03/15 12:36:15;;;;;;;1.70;1.15;;;11.30;74.70;;;;;;5073208;28;20036;-54
2021/03/15 12:38:41;;;;;;;1.45;0.90;;;11.00;75.30;;;;;;5073476;28;20024;-50
2021/03/15 12:41:07;;;;;;;0.85;0.70;;;11.00;75.80;;;;;;5071993;28;20075;-50
2021/03/15 12:43:32;;;;;;;0.77;0.70;;;11.10;75.90;;;;;;5090114;28;20111;-49
2021/03/15 12:45:58;;;;;;;1.08;0.98;;;11.20;75.40;;;;;;5093329;28;20516;-53
2021/03/15 12:48:23;;;;;;;3.92;0.80;;;11.40;74.80;;;;;;5093436;28;20035;-51
2021/03/15 12:50:49;;;;;;;0.50;0.50;;;11.50;74.70;;;;;;5085838;28;20013;-51
2021/03/15 12:53:15;;;;;;;0.88;0.73;;;11.70;73.70;;;;;;5073151;28;20433;-52
2021/03/15 12:55:40;;;;;;;0.50;0.50;;;11.70;73.20;;;;;;5071603;28;20059;-52
2021/03/15 12:58:06;;;;;;;0.60;0.60;;;11.60;72.30;;;;;;5073282;28;20021;-55
2021/03/15 13:00:31;;;;;;;0.40;0.40;;;11.60;72.90;;;;;;5072848;28;20028;-52
2021/03/15 13:02:57;;;;;;;0.93;0.63;;;11.50;72.40;;;;;;5072961;28;20365;-49
2021/03/15 13:05:22;;;;;;;0.80;0.68;;;11.60;72.50;;;;;;5072874;28;20024;-51